createdAt,value
2022-12-06T00:00:49.921Z,5.9
2022-12-06T00:05:52.244Z,5.3
2022-12-06T00:10:54.476Z,5.7
2022-12-06T00:15:56.908Z,5.8
2022-12-06T00:20:59.854Z,6.1
2022-12-06T00:26:02.036Z,6.9
2022-12-06T00:31:04.307Z,5.7
2022-12-06T00:36:06.433Z,5.9
2022-12-06T00:41:08.599Z,6.3
2022-12-06T00:46:11.194Z,5.9
2022-12-06T00:51:13.654Z,8.6
2022-12-06T00:56:14.144Z,6.3
2022-12-06T01:01:16.532Z,6.8
2022-12-06T01:06:19.232Z,8.2
2022-12-06T01:11:19.655Z,6.6
2022-12-06T01:16:21.919Z,5.5
2022-12-06T01:21:24.173Z,5.6
2022-12-06T01:26:26.347Z,8.1
2022-12-06T01:31:29.647Z,7.5
2022-12-06T01:36:31.427Z,5.5
2022-12-06T01:41:33.583Z,5.1
2022-12-06T01:46:35.908Z,5.4
2022-12-06T01:51:38.613Z,5.4
2022-12-06T01:56:40.893Z,5.3
2022-12-06T02:01:43.393Z,5.8
2022-12-06T02:06:45.974Z,5.2
2022-12-06T02:11:48.381Z,5.2
2022-12-06T02:16:51.124Z,5.4
2022-12-06T02:21:53.907Z,5.1
2022-12-06T02:26:56.046Z,5.2
2022-12-06T02:31:58.131Z,5.2
2022-12-06T02:37:00.294Z,5.4
2022-12-06T02:42:02.352Z,5.4
2022-12-06T02:47:04.325Z,4.9
2022-12-06T02:52:06.530Z,5.2
2022-12-06T02:57:07.454Z,5.2
2022-12-06T03:02:09.798Z,5.1
2022-12-06T03:07:12.283Z,5.1
2022-12-06T03:12:14.452Z,5.2
2022-12-06T03:17:16.755Z,4.8
2022-12-06T03:22:18.960Z,5.1
2022-12-06T03:27:21.078Z,4.8
2022-12-06T03:32:23.223Z,6.1
2022-12-06T03:37:25.592Z,6.8
2022-12-06T03:42:27.668Z,4.9
2022-12-06T03:47:29.716Z,5
2022-12-06T03:52:31.782Z,4.8
2022-12-06T03:57:33.869Z,5
2022-12-06T04:02:36.037Z,5.1
2022-12-06T04:07:38.064Z,4.9
2022-12-06T04:12:40.265Z,4.9
2022-12-06T04:17:42.672Z,4.6
2022-12-06T04:22:44.684Z,4.8
2022-12-06T04:27:46.773Z,5.1
2022-12-06T04:32:48.773Z,4.5
2022-12-06T04:37:50.784Z,5.1
2022-12-06T04:42:52.841Z,5.4
2022-12-06T04:47:54.936Z,5.1
2022-12-06T04:52:57.053Z,5.1
2022-12-06T04:57:59.184Z,5.1
2022-12-06T05:03:01.440Z,5
2022-12-06T05:08:03.626Z,5.2
2022-12-06T05:13:05.959Z,5.4
2022-12-06T05:18:08.098Z,5.5
2022-12-06T05:23:10.128Z,5.6
2022-12-06T05:28:12.141Z,6.2
2022-12-06T05:33:14.133Z,5.5
2022-12-06T05:38:16.426Z,5.7
2022-12-06T05:43:18.638Z,6.1
2022-12-06T05:48:20.859Z,6.1
2022-12-06T05:53:23.089Z,5.6
2022-12-06T05:58:25.182Z,5.5
2022-12-06T06:03:27.567Z,6.4
2022-12-06T06:08:30.331Z,6
2022-12-06T06:13:32.514Z,5.9
2022-12-06T06:18:34.956Z,5.6
2022-12-06T06:23:36.954Z,5.8
2022-12-06T06:28:39.067Z,5.9
2022-12-06T06:33:41.444Z,6.4
2022-12-06T06:38:44.364Z,6.7
2022-12-06T06:43:47.226Z,7
2022-12-06T06:48:52.246Z,7.6
2022-12-06T06:53:54.511Z,6.4
2022-12-06T06:58:58.795Z,6.8
2022-12-06T07:04:00.999Z,7.3
2022-12-06T07:09:03.044Z,7
2022-12-06T07:14:05.318Z,6.7
2022-12-06T07:19:10.109Z,6.9
2022-12-06T07:24:12.746Z,7.5
2022-12-06T07:29:14.921Z,6.8
2022-12-06T07:34:19.616Z,6.9
2022-12-06T07:39:21.901Z,6.8
2022-12-06T07:44:23.965Z,7.6
2022-12-06T07:49:27.285Z,7.4
2022-12-06T07:54:29.786Z,7.2
2022-12-06T07:59:31.879Z,7.5
2022-12-06T08:04:34.176Z,7.9
2022-12-06T08:09:36.531Z,8.3
2022-12-06T08:14:38.657Z,8.3
2022-12-06T08:19:41.065Z,8.4
2022-12-06T08:24:43.012Z,8.7
2022-12-06T08:29:44.982Z,8.6
2022-12-06T08:34:46.906Z,8.4
2022-12-06T08:39:49.018Z,8.3
2022-12-06T08:44:50.990Z,8.9
2022-12-06T08:49:53.092Z,9.1
2022-12-06T08:54:55.124Z,8.9
2022-12-06T08:59:57.231Z,9.3
2022-12-06T09:05:00.471Z,10.5
2022-12-06T09:10:03.825Z,9.2
2022-12-06T09:15:06.061Z,9
2022-12-06T09:20:09.102Z,9.2
2022-12-06T09:25:12.687Z,9.6
2022-12-06T09:30:14.850Z,9.6
2022-12-06T09:35:24.975Z,9.3
2022-12-06T09:40:17.434Z,9.7
2022-12-06T09:45:19.426Z,10.1
2022-12-06T09:50:21.479Z,11
2022-12-06T09:55:24.637Z,12.4
2022-12-06T10:00:26.879Z,13.9
2022-12-06T10:05:29.289Z,18.4
2022-12-06T10:10:31.395Z,15.6
2022-12-06T10:15:33.480Z,12.2
2022-12-06T10:20:35.692Z,11.9
2022-12-06T10:25:37.748Z,9.6
2022-12-06T10:30:39.845Z,8.6
2022-12-06T10:35:41.816Z,8
2022-12-06T10:40:43.915Z,6.9
2022-12-06T10:45:46.147Z,6.1
2022-12-06T10:50:48.309Z,5.5
2022-12-06T10:55:50.276Z,4.8
2022-12-06T11:00:52.704Z,5.1
2022-12-06T11:05:55.344Z,4.2
2022-12-06T11:10:57.549Z,4.8
2022-12-06T11:15:59.803Z,3.6
2022-12-06T11:21:02.120Z,3
2022-12-06T11:26:04.362Z,2.9
2022-12-06T11:31:06.428Z,2.7
2022-12-06T11:36:08.590Z,2.9
2022-12-06T11:41:10.699Z,3.4
2022-12-06T11:46:12.839Z,4.4
2022-12-06T11:51:14.993Z,3.8
2022-12-06T11:56:18.477Z,2.1
2022-12-06T12:01:20.812Z,1.5
2022-12-06T12:06:25.876Z,1.4
2022-12-06T12:11:28.217Z,1.3
2022-12-06T12:16:30.438Z,1.2
2022-12-06T12:21:32.934Z,1.1
2022-12-06T12:26:34.989Z,1.2
2022-12-06T12:31:37.016Z,1.3
2022-12-06T12:36:39.040Z,1.3
2022-12-06T12:41:40.912Z,2
2022-12-06T12:46:41.297Z,1.5
2022-12-06T12:51:49.215Z,1.3
2022-12-06T12:56:51.696Z,1.6
2022-12-06T13:01:53.752Z,1.7
2022-12-06T13:06:56.318Z,1.3
2022-12-06T13:11:58.473Z,2.6
2022-12-06T13:17:00.675Z,2.8
2022-12-06T13:22:02.992Z,2.3
2022-12-06T13:27:05.489Z,3
2022-12-06T13:32:07.711Z,2.6
2022-12-06T13:37:09.784Z,8.2
2022-12-06T13:42:13.159Z,3
2022-12-06T13:47:15.320Z,3.3
2022-12-06T13:52:17.404Z,2.5
2022-12-06T13:57:19.420Z,2
2022-12-06T14:02:21.489Z,2.9
2022-12-06T14:07:21.905Z,2.1
2022-12-06T14:12:24.110Z,1.9
2022-12-06T14:18:04.530Z,2
2022-12-06T14:22:34.707Z,2.1
2022-12-06T14:27:36.970Z,2.8
2022-12-06T14:32:39.595Z,3.2
2022-12-06T14:37:41.671Z,3.6
2022-12-06T14:42:44.073Z,3.5
2022-12-06T14:47:46.084Z,3.1
2022-12-06T14:52:49.363Z,3.1
2022-12-06T14:57:51.285Z,3.3
2022-12-06T15:02:56.753Z,3.7
2022-12-06T15:07:59.643Z,4.3
2022-12-06T15:13:01.997Z,6.4
2022-12-06T15:18:03.949Z,8.7
2022-12-06T15:23:06.100Z,6.4
2022-12-06T15:28:08.079Z,4.7
2022-12-06T15:33:11.198Z,4.6
2022-12-06T15:38:13.818Z,4.9
2022-12-06T15:43:16.068Z,10.7
2022-12-06T15:48:18.241Z,4.6
2022-12-06T15:53:20.647Z,3.8
2022-12-06T15:58:23.284Z,3.7
2022-12-06T16:03:25.479Z,4.6
2022-12-06T16:08:28.332Z,6.1
2022-12-06T16:14:41.086Z,4.2
2022-12-06T16:19:43.066Z,5.5
2022-12-06T16:24:50.912Z,7.1
2022-12-06T16:29:46.272Z,9.4
2022-12-06T16:34:48.288Z,8.7
2022-12-06T16:39:53.490Z,8.1
2022-12-06T16:44:55.600Z,7.9
2022-12-06T16:50:01.258Z,7.3
2022-12-06T16:55:04.560Z,7.8
2022-12-06T17:00:07.194Z,7.9
2022-12-06T17:05:09.292Z,8.7
2022-12-06T17:10:11.379Z,17.1
2022-12-06T17:15:14.593Z,47.5
2022-12-06T17:20:17.150Z,31.4
2022-12-06T17:25:19.181Z,25.7
2022-12-06T17:30:24.114Z,15
2022-12-06T17:35:26.955Z,12.1
2022-12-06T17:40:28.889Z,10.3
2022-12-06T17:45:32.359Z,9.2
2022-12-06T17:50:34.654Z,9.1
2022-12-06T17:55:37.517Z,11.7
2022-12-06T18:00:39.661Z,9.6
2022-12-06T18:05:41.812Z,10.4
2022-12-06T18:10:43.879Z,9.8
2022-12-06T18:15:47.024Z,11.6
2022-12-06T18:20:49.258Z,11.1
2022-12-06T18:25:51.169Z,10.7
2022-12-06T18:30:53.179Z,10.5
2022-12-06T18:35:55.700Z,9.2
2022-12-06T18:40:57.676Z,11.3
2022-12-06T18:45:59.858Z,10.9
2022-12-06T18:51:02.429Z,12.5
2022-12-06T18:56:04.803Z,13.7
2022-12-06T19:01:07.129Z,13.2
2022-12-06T19:06:09.384Z,12.1
2022-12-06T19:11:11.433Z,10.4
2022-12-06T19:16:13.505Z,10.2
2022-12-06T19:21:15.938Z,10.5
2022-12-06T19:26:19.274Z,11.1
2022-12-06T19:31:21.679Z,12.2
2022-12-06T19:36:24.721Z,13.6
2022-12-06T19:41:26.892Z,14.8
2022-12-06T19:46:29.021Z,16.2
2022-12-06T19:51:32.190Z,15.8
2022-12-06T19:56:34.700Z,14.4
2022-12-06T20:01:37.956Z,13.6
2022-12-06T20:06:40.191Z,11.5
2022-12-06T20:11:43.803Z,11.9
2022-12-06T20:16:46.481Z,11.6
2022-12-06T20:21:48.658Z,13.6
2022-12-06T20:26:51.069Z,12.1
2022-12-06T20:31:53.330Z,11.8
2022-12-06T20:36:55.590Z,12.3
2022-12-06T20:41:58.284Z,14.7
2022-12-06T20:47:00.903Z,14.6
2022-12-06T20:52:03.515Z,14.1
2022-12-06T20:57:05.526Z,13.2
2022-12-06T21:02:08.176Z,13.4
2022-12-06T21:07:10.467Z,14.2
2022-12-06T21:12:12.802Z,13.2
2022-12-06T21:17:14.953Z,12.5
2022-12-06T21:22:16.952Z,12.6
2022-12-06T21:27:18.968Z,13.9
2022-12-06T21:32:20.993Z,18.1
2022-12-06T21:37:23.147Z,14.1
2022-12-06T21:42:25.086Z,14.1
2022-12-06T21:47:27.165Z,14.1
2022-12-06T21:52:29.258Z,16.1
2022-12-06T21:57:31.282Z,15.8
2022-12-06T22:02:33.547Z,15.8
2022-12-06T22:07:36.532Z,14.6
2022-12-06T22:12:38.834Z,16.1
2022-12-06T22:17:40.860Z,22
2022-12-06T22:22:41.261Z,14.6
2022-12-06T22:27:43.275Z,14.6
2022-12-06T22:32:45.268Z,14.7
2022-12-06T22:37:47.449Z,17.1
2022-12-06T22:42:49.395Z,15.8
2022-12-06T22:47:51.578Z,23.1
2022-12-06T22:52:52.134Z,16
2022-12-06T22:57:54.229Z,15.4
2022-12-06T23:02:56.280Z,23.2
2022-12-06T23:07:56.911Z,15.9
2022-12-06T23:12:59.233Z,15.3
2022-12-06T23:18:01.589Z,15.1
2022-12-06T23:23:03.690Z,14.6
2022-12-06T23:28:05.946Z,14
2022-12-06T23:33:08.051Z,13.6
2022-12-06T23:38:10.338Z,14
2022-12-06T23:43:12.664Z,14.4
2022-12-06T23:48:14.709Z,15.9
2022-12-06T23:53:16.830Z,17.3
2022-12-06T23:58:18.750Z,17.5
